Aérodrome :
LOGIN :

S'inscrire | Disclaimer

   EN    FR    IT 

 










Légende :    VFR   VFR Marginal   IFR   IFR Intensif   IFR Très Intensif
Visi : 
Plafond : 
>= 8 km
>= 3000ft
5 à 8 km
1000 à 3000 ft
1500m à 5 km
500 à 1000 ft
800 à 1500m
200 à 500 ft
< 800m
< 200 ft
Symboles :   Orages  Brouillard  Fortes neiges  Fortes précipitations  Vent > 20 kt
SIGMETs :   Divers  Orages  Givrage  Turbulence  Onde Orograph.  Cendres Volcan.







- Altitude de l'aérodrome : 309 ft
- Code IATA : FNI
- Voir les cartes d'approche


LFTW - Nîmes Garons

DERNIER METAR :
  • 230000Z AUTO 29006KT 250V340 CAVOK 12/03 Q1024

METARs EXPIRÉS :
  • 222330Z AUTO 29004KT 260V330 CAVOK 12/03 Q1024
  • 222300Z AUTO 30006KT 260V320 CAVOK 12/03 Q1023
  • 222230Z AUTO 35005KT 310V020 CAVOK 11/03 Q1023
  • 222200Z AUTO 33008KT 310V010 CAVOK 13/03 Q1023
  • 222130Z AUTO 33009KT 280V350 CAVOK 13/03 Q1023

TAF TAF LFTW
Valide du 22 à 15h jusqu'au 23 à 15h UTC


221400Z 2215/2315 31017KT CAVOK
TEMPO 2215/2218 30015G25KT
BECMG 2306/2309 36015KT
TEMPO 2312/2315 36015G28KT
Pas de NOTAMs connus pour ce terrain.
2 SIGMETs publiés pour la FIR Marseille (LFMM) :
 
Turbulence forte
LFMM SIGMET 18 VALID 222300/230300 LFPW
LFMM MARSEILLE FIR/UIR SEV TURB FCST WI N4200 E00945 - N4115 E00945 - N4115 E00800 - N4015 E00800 - N4345 E00430 - N4400 E00645 SFC/FL060 MOV S 15KT NC=
Turbulence forte
LFMM SIGMET 17 VALID 222300/230300 LFPW
LFMM MARSEILLE FIR/UIR SEV TURB FCST WI N4630 E00515 - N4630 E00700 - N4400 E00700 - N4345 E00815 - N4315 E00700 FL220/320 MOV E 15KT NC=



MET'MAP, la Météo Aéronautique d'un coup d'oeil ! - Copyright ORBIFLY Décembre 2007 - Disclaimer

ORBIFLY MET'MAP TEAM :

Programmation & Développement : Alexandra Zaïnal
Conception & Développement : Baudouin d'Aumeries
Co-Programmation & Développement : Marc-Olivier Méhu
Soutien technique & logistique : Manuel Goepfert

Contact : metmap@orbifly.com




SOURCES & CREDITS :

   NOAA